sensor_id;sensor_type;location;lat;lon;timestamp;temperature;humidity
17066;DHT22;23120;52.336;21.182;2022-07-24T00:01:09;20.50;84.30
17066;DHT22;23120;52.336;21.182;2022-07-24T00:03:36;20.50;84.30
17066;DHT22;23120;52.336;21.182;2022-07-24T00:06:02;20.50;84.30
17066;DHT22;23120;52.336;21.182;2022-07-24T00:08:29;20.50;84.20
17066;DHT22;23120;52.336;21.182;2022-07-24T00:10:56;20.50;84.20
17066;DHT22;23120;52.336;21.182;2022-07-24T00:13:23;20.50;85.20
17066;DHT22;23120;52.336;21.182;2022-07-24T00:15:50;20.50;84.90
17066;DHT22;23120;52.336;21.182;2022-07-24T00:18:18;20.60;85.20
17066;DHT22;23120;52.336;21.182;2022-07-24T00:20:45;20.50;85.40
17066;DHT22;23120;52.336;21.182;2022-07-24T00:23:12;20.50;84.90
17066;DHT22;23120;52.336;21.182;2022-07-24T00:25:39;20.50;86.00
17066;DHT22;23120;52.336;21.182;2022-07-24T00:28:05;20.50;86.30
17066;DHT22;23120;52.336;21.182;2022-07-24T00:30:32;20.50;84.30
17066;DHT22;23120;52.336;21.182;2022-07-24T00:32:59;20.50;85.20
17066;DHT22;23120;52.336;21.182;2022-07-24T00:35:27;20.50;85.40
17066;DHT22;23120;52.336;21.182;2022-07-24T00:37:54;20.50;86.10
17066;DHT22;23120;52.336;21.182;2022-07-24T00:40:21;20.50;86.80
17066;DHT22;23120;52.336;21.182;2022-07-24T00:42:50;20.50;86.40
17066;DHT22;23120;52.336;21.182;2022-07-24T00:45:17;20.50;86.10
17066;DHT22;23120;52.336;21.182;2022-07-24T00:47:44;20.40;86.80
17066;DHT22;23120;52.336;21.182;2022-07-24T00:50:11;20.50;86.40
17066;DHT22;23120;52.336;21.182;2022-07-24T00:52:39;20.40;86.70
17066;DHT22;23120;52.336;21.182;2022-07-24T00:55:07;20.40;87.70
17066;DHT22;23120;52.336;21.182;2022-07-24T00:57:34;20.50;87.50
17066;DHT22;23120;52.336;21.182;2022-07-24T01:00:01;20.40;87.20
17066;DHT22;23120;52.336;21.182;2022-07-24T01:02:29;20.40;87.70
17066;DHT22;23120;52.336;21.182;2022-07-24T01:04:55;20.40;87.70
17066;DHT22;23120;52.336;21.182;2022-07-24T01:07:22;20.40;87.50
17066;DHT22;23120;52.336;21.182;2022-07-24T01:09:50;20.40;87.90
17066;DHT22;23120;52.336;21.182;2022-07-24T01:12:17;20.40;87.10
17066;DHT22;23120;52.336;21.182;2022-07-24T01:14:44;20.40;88.10
17066;DHT22;23120;52.336;21.182;2022-07-24T01:17:11;20.40;88.60
17066;DHT22;23120;52.336;21.182;2022-07-24T01:19:38;20.40;87.90
17066;DHT22;23120;52.336;21.182;2022-07-24T01:22:06;20.40;89.00
17066;DHT22;23120;52.336;21.182;2022-07-24T01:24:33;20.60;88.70
17066;DHT22;23120;52.336;21.182;2022-07-24T01:27:00;20.50;87.80
17066;DHT22;23120;52.336;21.182;2022-07-24T01:29:27;20.50;87.30
17066;DHT22;23120;52.336;21.182;2022-07-24T01:31:53;20.50;84.40
17066;DHT22;23120;52.336;21.182;2022-07-24T01:34:20;20.50;84.30
17066;DHT22;23120;52.336;21.182;2022-07-24T01:36:47;20.50;82.90
17066;DHT22;23120;52.336;21.182;2022-07-24T01:39:15;20.30;83.50
17066;DHT22;23120;52.336;21.182;2022-07-24T01:41:42;20.30;83.30
17066;DHT22;23120;52.336;21.182;2022-07-24T01:44:09;20.20;83.30
17066;DHT22;23120;52.336;21.182;2022-07-24T01:46:36;20.10;82.10
17066;DHT22;23120;52.336;21.182;2022-07-24T01:49:03;20.00;82.00
17066;DHT22;23120;52.336;21.182;2022-07-24T01:51:47;19.90;81.70
17066;DHT22;23120;52.336;21.182;2022-07-24T01:54:15;19.80;81.90
17066;DHT22;23120;52.336;21.182;2022-07-24T01:56:42;19.70;81.90
17066;DHT22;23120;52.336;21.182;2022-07-24T01:59:09;19.50;82.20
17066;DHT22;23120;52.336;21.182;2022-07-24T02:01:35;19.50;81.70
17066;DHT22;23120;52.336;21.182;2022-07-24T02:04:03;19.50;81.60
17066;DHT22;23120;52.336;21.182;2022-07-24T02:06:29;19.50;81.60
17066;DHT22;23120;52.336;21.182;2022-07-24T02:08:56;19.50;81.80
17066;DHT22;23120;52.336;21.182;2022-07-24T02:11:24;19.40;81.40
17066;DHT22;23120;52.336;21.182;2022-07-24T02:13:51;19.50;81.90
17066;DHT22;23120;52.336;21.182;2022-07-24T02:16:21;19.30;81.40
17066;DHT22;23120;52.336;21.182;2022-07-24T02:18:47;19.20;81.10
17066;DHT22;23120;52.336;21.182;2022-07-24T02:21:14;19.20;81.30
17066;DHT22;23120;52.336;21.182;2022-07-24T02:23:41;19.10;81.10
17066;DHT22;23120;52.336;21.182;2022-07-24T02:26:08;19.10;81.50
17066;DHT22;23120;52.336;21.182;2022-07-24T02:28:36;19.10;81.30
17066;DHT22;23120;52.336;21.182;2022-07-24T02:31:03;19.00;81.30
17066;DHT22;23120;52.336;21.182;2022-07-24T02:33:30;19.00;80.60
17066;DHT22;23120;52.336;21.182;2022-07-24T02:35:56;18.90;81.10
17066;DHT22;23120;52.336;21.182;2022-07-24T02:38:23;18.90;81.10
17066;DHT22;23120;52.336;21.182;2022-07-24T02:40:50;18.80;81.00
17066;DHT22;23120;52.336;21.182;2022-07-24T02:43:17;18.80;81.20
17066;DHT22;23120;52.336;21.182;2022-07-24T02:45:45;18.80;81.40
17066;DHT22;23120;52.336;21.182;2022-07-24T02:48:12;18.70;81.00
17066;DHT22;23120;52.336;21.182;2022-07-24T02:50:39;18.70;81.30
17066;DHT22;23120;52.336;21.182;2022-07-24T02:53:06;18.80;81.80
17066;DHT22;23120;52.336;21.182;2022-07-24T02:55:33;18.60;80.90
17066;DHT22;23120;52.336;21.182;2022-07-24T02:58:00;18.60;81.40
17066;DHT22;23120;52.336;21.182;2022-07-24T03:00:27;18.60;81.70
17066;DHT22;23120;52.336;21.182;2022-07-24T03:02:55;18.60;81.00
17066;DHT22;23120;52.336;21.182;2022-07-24T03:05:22;18.60;82.50
17066;DHT22;23120;52.336;21.182;2022-07-24T03:07:49;18.50;81.60
17066;DHT22;23120;52.336;21.182;2022-07-24T03:10:16;18.50;81.80
17066;DHT22;23120;52.336;21.182;2022-07-24T03:12:43;18.50;81.60
17066;DHT22;23120;52.336;21.182;2022-07-24T03:15:11;18.50;82.20
17066;DHT22;23120;52.336;21.182;2022-07-24T03:17:38;18.50;82.20
17066;DHT22;23120;52.336;21.182;2022-07-24T03:20:08;18.40;82.00
17066;DHT22;23120;52.336;21.182;2022-07-24T03:22:35;18.40;82.10
17066;DHT22;23120;52.336;21.182;2022-07-24T03:25:02;18.40;82.10
17066;DHT22;23120;52.336;21.182;2022-07-24T03:27:29;18.30;82.00
17066;DHT22;23120;52.336;21.182;2022-07-24T03:29:56;18.30;82.00
17066;DHT22;23120;52.336;21.182;2022-07-24T03:32:23;18.30;82.00
17066;DHT22;23120;52.336;21.182;2022-07-24T03:34:50;18.30;83.00
17066;DHT22;23120;52.336;21.182;2022-07-24T03:37:18;18.30;82.70
17066;DHT22;23120;52.336;21.182;2022-07-24T03:39:45;18.30;83.30
17066;DHT22;23120;52.336;21.182;2022-07-24T03:42:12;18.30;83.10
17066;DHT22;23120;52.336;21.182;2022-07-24T03:44:39;18.20;83.40
17066;DHT22;23120;52.336;21.182;2022-07-24T03:47:06;18.20;82.50
17066;DHT22;23120;52.336;21.182;2022-07-24T03:49:33;18.20;81.90
17066;DHT22;23120;52.336;21.182;2022-07-24T03:52:00;18.20;82.30
17066;DHT22;23120;52.336;21.182;2022-07-24T03:54:28;18.20;83.10
17066;DHT22;23120;52.336;21.182;2022-07-24T03:56:55;18.20;82.50
17066;DHT22;23120;52.336;21.182;2022-07-24T03:59:22;18.20;83.60
17066;DHT22;23120;52.336;21.182;2022-07-24T04:01:49;18.20;83.50
17066;DHT22;23120;52.336;21.182;2022-07-24T04:04:16;18.20;83.40
17066;DHT22;23120;52.336;21.182;2022-07-24T04:06:43;18.20;83.50
17066;DHT22;23120;52.336;21.182;2022-07-24T04:09:10;18.10;82.60
17066;DHT22;23120;52.336;21.182;2022-07-24T04:11:38;18.10;83.10
17066;DHT22;23120;52.336;21.182;2022-07-24T04:14:05;18.10;83.10
17066;DHT22;23120;52.336;21.182;2022-07-24T04:16:31;18.10;83.90
17066;DHT22;23120;52.336;21.182;2022-07-24T04:18:58;18.10;81.90
17066;DHT22;23120;52.336;21.182;2022-07-24T04:21:25;18.10;83.80
17066;DHT22;23120;52.336;21.182;2022-07-24T04:23:52;18.00;84.10
17066;DHT22;23120;52.336;21.182;2022-07-24T04:26:18;18.00;83.90
17066;DHT22;23120;52.336;21.182;2022-07-24T04:28:47;18.00;83.80
17066;DHT22;23120;52.336;21.182;2022-07-24T04:31:14;18.00;84.20
17066;DHT22;23120;52.336;21.182;2022-07-24T04:33:41;18.00;84.10
17066;DHT22;23120;52.336;21.182;2022-07-24T04:36:08;18.00;84.50
17066;DHT22;23120;52.336;21.182;2022-07-24T04:38:35;18.00;84.40
17066;DHT22;23120;52.336;21.182;2022-07-24T04:41:02;18.00;84.40
17066;DHT22;23120;52.336;21.182;2022-07-24T04:43:29;18.00;84.40
17066;DHT22;23120;52.336;21.182;2022-07-24T04:45:58;18.00;85.20
17066;DHT22;23120;52.336;21.182;2022-07-24T04:48:25;17.90;85.00
17066;DHT22;23120;52.336;21.182;2022-07-24T04:50:52;18.00;85.20
17066;DHT22;23120;52.336;21.182;2022-07-24T04:53:18;18.00;84.60
17066;DHT22;23120;52.336;21.182;2022-07-24T04:55:45;17.90;84.90
17066;DHT22;23120;52.336;21.182;2022-07-24T04:58:12;18.00;84.60
17066;DHT22;23120;52.336;21.182;2022-07-24T05:00:39;17.90;84.30
17066;DHT22;23120;52.336;21.182;2022-07-24T05:03:07;18.00;84.40
17066;DHT22;23120;52.336;21.182;2022-07-24T05:05:34;18.00;84.50
17066;DHT22;23120;52.336;21.182;2022-07-24T05:08:01;18.10;84.40
17066;DHT22;23120;52.336;21.182;2022-07-24T05:10:27;18.10;84.90
17066;DHT22;23120;52.336;21.182;2022-07-24T05:12:54;18.20;85.20
17066;DHT22;23120;52.336;21.182;2022-07-24T05:15:21;18.40;85.20
17066;DHT22;23120;52.336;21.182;2022-07-24T05:17:48;18.50;84.30
17066;DHT22;23120;52.336;21.182;2022-07-24T05:20:16;18.70;82.50
17066;DHT22;23120;52.336;21.182;2022-07-24T05:22:43;18.90;82.60
17066;DHT22;23120;52.336;21.182;2022-07-24T05:25:10;19.20;82.10
17066;DHT22;23120;52.336;21.182;2022-07-24T05:27:37;19.30;81.60
17066;DHT22;23120;52.336;21.182;2022-07-24T05:30:05;19.50;81.20
17066;DHT22;23120;52.336;21.182;2022-07-24T05:32:32;19.60;80.90
17066;DHT22;23120;52.336;21.182;2022-07-24T05:34:59;19.70;80.70
17066;DHT22;23120;52.336;21.182;2022-07-24T05:37:27;19.90;79.80
17066;DHT22;23120;52.336;21.182;2022-07-24T05:39:54;20.20;79.20
17066;DHT22;23120;52.336;21.182;2022-07-24T05:42:20;20.40;78.70
17066;DHT22;23120;52.336;21.182;2022-07-24T05:44:47;20.60;77.40
17066;DHT22;23120;52.336;21.182;2022-07-24T05:47:14;20.80;76.60
17066;DHT22;23120;52.336;21.182;2022-07-24T05:49:41;20.80;76.30
17066;DHT22;23120;52.336;21.182;2022-07-24T05:52:08;20.90;75.80
17066;DHT22;23120;52.336;21.182;2022-07-24T05:54:36;21.00;75.00
17066;DHT22;23120;52.336;21.182;2022-07-24T05:57:03;21.10;74.50
17066;DHT22;23120;52.336;21.182;2022-07-24T05:59:30;21.10;74.00
17066;DHT22;23120;52.336;21.182;2022-07-24T06:01:56;21.30;74.00
17066;DHT22;23120;52.336;21.182;2022-07-24T06:04:25;21.40;73.70
17066;DHT22;23120;52.336;21.182;2022-07-24T06:06:52;21.50;72.80
17066;DHT22;23120;52.336;21.182;2022-07-24T06:09:19;21.60;72.60
17066;DHT22;23120;52.336;21.182;2022-07-24T06:11:47;21.50;72.00
17066;DHT22;23120;52.336;21.182;2022-07-24T06:14:13;21.40;71.30
17066;DHT22;23120;52.336;21.182;2022-07-24T06:16:40;21.50;72.00
17066;DHT22;23120;52.336;21.182;2022-07-24T06:19:07;21.60;71.20
17066;DHT22;23120;52.336;21.182;2022-07-24T06:21:34;21.70;70.90
17066;DHT22;23120;52.336;21.182;2022-07-24T06:24:00;21.80;70.80
17066;DHT22;23120;52.336;21.182;2022-07-24T06:26:27;21.80;70.00
17066;DHT22;23120;52.336;21.182;2022-07-24T06:28:55;21.80;70.20
17066;DHT22;23120;52.336;21.182;2022-07-24T06:31:22;21.80;69.70
17066;DHT22;23120;52.336;21.182;2022-07-24T06:33:49;21.80;68.80
17066;DHT22;23120;52.336;21.182;2022-07-24T06:36:16;21.90;68.90
17066;DHT22;23120;52.336;21.182;2022-07-24T06:38:42;21.90;69.30
17066;DHT22;23120;52.336;21.182;2022-07-24T06:41:09;21.90;69.50
17066;DHT22;23120;52.336;21.182;2022-07-24T06:43:36;22.00;69.20
17066;DHT22;23120;52.336;21.182;2022-07-24T06:46:05;21.90;69.50
17066;DHT22;23120;52.336;21.182;2022-07-24T06:48:32;21.90;70.10
17066;DHT22;23120;52.336;21.182;2022-07-24T06:50:59;21.80;69.30
17066;DHT22;23120;52.336;21.182;2022-07-24T06:53:26;22.00;70.20
17066;DHT22;23120;52.336;21.182;2022-07-24T06:55:53;21.90;69.60
17066;DHT22;23120;52.336;21.182;2022-07-24T06:58:21;22.00;69.60
17066;DHT22;23120;52.336;21.182;2022-07-24T07:00:48;21.90;68.90
17066;DHT22;23120;52.336;21.182;2022-07-24T07:03:16;22.00;70.00
17066;DHT22;23120;52.336;21.182;2022-07-24T07:05:44;21.90;69.20
17066;DHT22;23120;52.336;21.182;2022-07-24T07:08:14;21.90;69.40
17066;DHT22;23120;52.336;21.182;2022-07-24T07:10:41;21.90;70.30
17066;DHT22;23120;52.336;21.182;2022-07-24T07:13:07;21.90;69.50
17066;DHT22;23120;52.336;21.182;2022-07-24T07:15:34;21.90;69.30
17066;DHT22;23120;52.336;21.182;2022-07-24T07:18:01;21.90;69.40
17066;DHT22;23120;52.336;21.182;2022-07-24T07:20:29;21.90;69.30
17066;DHT22;23120;52.336;21.182;2022-07-24T07:22:56;21.90;68.60
17066;DHT22;23120;52.336;21.182;2022-07-24T07:25:23;21.80;69.70
17066;DHT22;23120;52.336;21.182;2022-07-24T07:27:50;21.80;68.80
17066;DHT22;23120;52.336;21.182;2022-07-24T07:30:17;21.90;69.50
17066;DHT22;23120;52.336;21.182;2022-07-24T07:32:44;22.00;70.30
17066;DHT22;23120;52.336;21.182;2022-07-24T07:35:10;22.10;68.80
17066;DHT22;23120;52.336;21.182;2022-07-24T07:37:38;22.00;67.70
17066;DHT22;23120;52.336;21.182;2022-07-24T07:40:06;22.10;67.90
17066;DHT22;23120;52.336;21.182;2022-07-24T07:42:33;22.20;69.40
17066;DHT22;23120;52.336;21.182;2022-07-24T07:45:00;22.20;68.20
17066;DHT22;23120;52.336;21.182;2022-07-24T07:47:28;22.30;69.30
17066;DHT22;23120;52.336;21.182;2022-07-24T07:49:54;22.30;69.60
17066;DHT22;23120;52.336;21.182;2022-07-24T07:52:21;22.30;68.80
17066;DHT22;23120;52.336;21.182;2022-07-24T07:54:50;22.40;69.50
17066;DHT22;23120;52.336;21.182;2022-07-24T07:57:16;22.40;69.80
17066;DHT22;23120;52.336;21.182;2022-07-24T07:59:43;22.50;69.50
17066;DHT22;23120;52.336;21.182;2022-07-24T08:02:10;22.60;68.80
17066;DHT22;23120;52.336;21.182;2022-07-24T08:04:37;22.50;68.90
17066;DHT22;23120;52.336;21.182;2022-07-24T08:07:04;22.60;69.10
17066;DHT22;23120;52.336;21.182;2022-07-24T08:09:30;22.50;69.30
17066;DHT22;23120;52.336;21.182;2022-07-24T08:11:59;22.60;69.70
17066;DHT22;23120;52.336;21.182;2022-07-24T08:14:25;22.50;70.20
17066;DHT22;23120;52.336;21.182;2022-07-24T08:16:52;22.60;70.00
17066;DHT22;23120;52.336;21.182;2022-07-24T08:19:19;22.70;68.90
17066;DHT22;23120;52.336;21.182;2022-07-24T08:21:46;22.70;68.90
17066;DHT22;23120;52.336;21.182;2022-07-24T08:24:13;22.80;69.90
17066;DHT22;23120;52.336;21.182;2022-07-24T08:26:46;22.90;68.60
17066;DHT22;23120;52.336;21.182;2022-07-24T08:29:14;22.90;66.20
17066;DHT22;23120;52.336;21.182;2022-07-24T08:31:41;23.00;66.20
17066;DHT22;23120;52.336;21.182;2022-07-24T08:34:07;23.10;67.60
17066;DHT22;23120;52.336;21.182;2022-07-24T08:36:34;23.20;68.00
17066;DHT22;23120;52.336;21.182;2022-07-24T08:39:01;23.20;68.30
17066;DHT22;23120;52.336;21.182;2022-07-24T08:41:30;23.20;67.40
17066;DHT22;23120;52.336;21.182;2022-07-24T08:43:58;23.10;65.60
17066;DHT22;23120;52.336;21.182;2022-07-24T08:46:27;23.10;66.90
17066;DHT22;23120;52.336;21.182;2022-07-24T08:48:55;23.10;66.60
17066;DHT22;23120;52.336;21.182;2022-07-24T08:51:28;23.10;66.90
17066;DHT22;23120;52.336;21.182;2022-07-24T08:53:57;23.20;67.80
17066;DHT22;23120;52.336;21.182;2022-07-24T08:56:25;23.30;68.30
17066;DHT22;23120;52.336;21.182;2022-07-24T08:58:52;23.30;67.90
17066;DHT22;23120;52.336;21.182;2022-07-24T09:01:19;23.30;67.50
17066;DHT22;23120;52.336;21.182;2022-07-24T09:03:47;23.30;67.90
17066;DHT22;23120;52.336;21.182;2022-07-24T09:06:14;23.30;68.50
17066;DHT22;23120;52.336;21.182;2022-07-24T09:08:42;23.40;67.90
17066;DHT22;23120;52.336;21.182;2022-07-24T09:11:09;23.30;67.90
17066;DHT22;23120;52.336;21.182;2022-07-24T09:13:37;23.40;67.20
17066;DHT22;23120;52.336;21.182;2022-07-24T09:16:23;23.30;67.50
17066;DHT22;23120;52.336;21.182;2022-07-24T09:19:02;23.30;67.60
17066;DHT22;23120;52.336;21.182;2022-07-24T09:21:32;23.30;67.60
17066;DHT22;23120;52.336;21.182;2022-07-24T09:24:12;23.30;67.00
17066;DHT22;23120;52.336;21.182;2022-07-24T09:26:44;23.30;66.70
17066;DHT22;23120;52.336;21.182;2022-07-24T09:29:12;23.30;67.10
17066;DHT22;23120;52.336;21.182;2022-07-24T09:31:53;23.30;67.50
17066;DHT22;23120;52.336;21.182;2022-07-24T09:34:22;23.30;67.50
17066;DHT22;23120;52.336;21.182;2022-07-24T09:36:57;23.30;67.10
17066;DHT22;23120;52.336;21.182;2022-07-24T09:39:24;23.20;69.10
17066;DHT22;23120;52.336;21.182;2022-07-24T09:41:52;23.10;69.00
17066;DHT22;23120;52.336;21.182;2022-07-24T09:44:20;22.90;69.90
17066;DHT22;23120;52.336;21.182;2022-07-24T09:46:54;22.90;69.90
17066;DHT22;23120;52.336;21.182;2022-07-24T09:49:24;22.80;70.50
17066;DHT22;23120;52.336;21.182;2022-07-24T09:52:12;23.00;70.10
17066;DHT22;23120;52.336;21.182;2022-07-24T09:54:41;23.00;69.70
17066;DHT22;23120;52.336;21.182;2022-07-24T09:57:16;23.00;69.20
17066;DHT22;23120;52.336;21.182;2022-07-24T09:59:45;23.10;70.20
17066;DHT22;23120;52.336;21.182;2022-07-24T10:02:13;23.00;70.10
17066;DHT22;23120;52.336;21.182;2022-07-24T10:04:43;23.20;70.30
17066;DHT22;23120;52.336;21.182;2022-07-24T10:07:15;23.30;69.70
17066;DHT22;23120;52.336;21.182;2022-07-24T10:09:44;23.40;69.30
17066;DHT22;23120;52.336;21.182;2022-07-24T10:12:12;23.50;70.10
17066;DHT22;23120;52.336;21.182;2022-07-24T10:14:40;23.40;69.30
17066;DHT22;23120;52.336;21.182;2022-07-24T10:17:10;23.60;69.30
17066;DHT22;23120;52.336;21.182;2022-07-24T10:19:40;23.70;68.70
17066;DHT22;23120;52.336;21.182;2022-07-24T10:22:12;23.50;69.50
17066;DHT22;23120;52.336;21.182;2022-07-24T10:24:54;23.70;68.60
17066;DHT22;23120;52.336;21.182;2022-07-24T10:27:28;23.70;67.90
17066;DHT22;23120;52.336;21.182;2022-07-24T10:29:57;23.70;68.90
17066;DHT22;23120;52.336;21.182;2022-07-24T10:32:25;23.80;67.40
17066;DHT22;23120;52.336;21.182;2022-07-24T10:35:02;23.80;67.70
17066;DHT22;23120;52.336;21.182;2022-07-24T10:37:39;23.80;68.00
17066;DHT22;23120;52.336;21.182;2022-07-24T10:40:13;23.80;68.00
17066;DHT22;23120;52.336;21.182;2022-07-24T10:43:12;23.80;67.50
17066;DHT22;23120;52.336;21.182;2022-07-24T10:45:40;23.80;67.00
17066;DHT22;23120;52.336;21.182;2022-07-24T10:48:25;23.80;68.00
17066;DHT22;23120;52.336;21.182;2022-07-24T10:51:05;23.90;67.10
17066;DHT22;23120;52.336;21.182;2022-07-24T10:53:48;23.80;67.70
17066;DHT22;23120;52.336;21.182;2022-07-24T10:56:21;23.80;67.80
17066;DHT22;23120;52.336;21.182;2022-07-24T10:59:02;23.90;67.60
17066;DHT22;23120;52.336;21.182;2022-07-24T11:01:38;23.90;66.60
17066;DHT22;23120;52.336;21.182;2022-07-24T11:04:27;24.00;67.70
17066;DHT22;23120;52.336;21.182;2022-07-24T11:06:59;24.00;66.70
17066;DHT22;23120;52.336;21.182;2022-07-24T11:09:28;24.00;66.90
17066;DHT22;23120;52.336;21.182;2022-07-24T11:12:06;24.00;66.90
17066;DHT22;23120;52.336;21.182;2022-07-24T11:14:49;23.90;67.20
17066;DHT22;23120;52.336;21.182;2022-07-24T11:17:35;23.90;67.00
17066;DHT22;23120;52.336;21.182;2022-07-24T11:20:03;23.80;67.50
17066;DHT22;23120;52.336;21.182;2022-07-24T11:22:41;23.90;66.30
17066;DHT22;23120;52.336;21.182;2022-07-24T11:25:12;23.80;66.50
17066;DHT22;23120;52.336;21.182;2022-07-24T11:27:49;23.70;67.10
17066;DHT22;23120;52.336;21.182;2022-07-24T11:30:18;23.70;67.50
17066;DHT22;23120;52.336;21.182;2022-07-24T11:32:45;23.70;66.50
17066;DHT22;23120;52.336;21.182;2022-07-24T11:35:12;23.80;66.90
17066;DHT22;23120;52.336;21.182;2022-07-24T11:37:41;23.90;68.30
17066;DHT22;23120;52.336;21.182;2022-07-24T11:40:13;24.00;66.60
17066;DHT22;23120;52.336;21.182;2022-07-24T11:42:40;24.20;65.50
17066;DHT22;23120;52.336;21.182;2022-07-24T11:45:08;24.10;65.20
17066;DHT22;23120;52.336;21.182;2022-07-24T11:47:35;24.10;65.40
17066;DHT22;23120;52.336;21.182;2022-07-24T11:50:04;24.20;66.30
17066;DHT22;23120;52.336;21.182;2022-07-24T11:52:33;24.30;66.70
17066;DHT22;23120;52.336;21.182;2022-07-24T11:55:02;24.50;67.10
17066;DHT22;23120;52.336;21.182;2022-07-24T11:57:33;24.60;67.00
17066;DHT22;23120;52.336;21.182;2022-07-24T12:00:00;24.70;66.70
17066;DHT22;23120;52.336;21.182;2022-07-24T12:02:27;24.80;67.00
17066;DHT22;23120;52.336;21.182;2022-07-24T12:04:54;25.00;65.40
17066;DHT22;23120;52.336;21.182;2022-07-24T12:07:22;25.00;66.30
17066;DHT22;23120;52.336;21.182;2022-07-24T12:09:50;25.10;65.60
17066;DHT22;23120;52.336;21.182;2022-07-24T12:12:22;25.10;64.70
17066;DHT22;23120;52.336;21.182;2022-07-24T12:14:53;25.20;64.70
17066;DHT22;23120;52.336;21.182;2022-07-24T12:17:20;25.20;65.00
17066;DHT22;23120;52.336;21.182;2022-07-24T12:19:52;25.20;64.20
17066;DHT22;23120;52.336;21.182;2022-07-24T12:22:21;25.30;63.60
17066;DHT22;23120;52.336;21.182;2022-07-24T12:24:48;25.30;64.20
17066;DHT22;23120;52.336;21.182;2022-07-24T12:27:35;25.50;65.20
17066;DHT22;23120;52.336;21.182;2022-07-24T12:30:15;25.40;64.20
17066;DHT22;23120;52.336;21.182;2022-07-24T12:32:53;25.40;65.70
17066;DHT22;23120;52.336;21.182;2022-07-24T12:35:20;25.50;64.70
17066;DHT22;23120;52.336;21.182;2022-07-24T12:37:46;25.50;64.40
17066;DHT22;23120;52.336;21.182;2022-07-24T12:40:22;25.40;63.70
17066;DHT22;23120;52.336;21.182;2022-07-24T12:42:56;25.30;62.40
17066;DHT22;23120;52.336;21.182;2022-07-24T12:45:24;25.30;63.20
17066;DHT22;23120;52.336;21.182;2022-07-24T12:48:06;25.30;62.20
17066;DHT22;23120;52.336;21.182;2022-07-24T12:50:33;25.30;63.30
17066;DHT22;23120;52.336;21.182;2022-07-24T12:53:03;25.40;63.60
17066;DHT22;23120;52.336;21.182;2022-07-24T12:55:30;25.40;63.90
17066;DHT22;23120;52.336;21.182;2022-07-24T12:57:59;25.50;62.80
17066;DHT22;23120;52.336;21.182;2022-07-24T13:00:28;25.60;63.70
17066;DHT22;23120;52.336;21.182;2022-07-24T13:02:55;25.70;63.70
17066;DHT22;23120;52.336;21.182;2022-07-24T13:05:39;25.80;62.20
17066;DHT22;23120;52.336;21.182;2022-07-24T13:08:06;25.90;64.10
17066;DHT22;23120;52.336;21.182;2022-07-24T13:10:34;25.90;61.80
17066;DHT22;23120;52.336;21.182;2022-07-24T13:13:01;26.00;62.50
17066;DHT22;23120;52.336;21.182;2022-07-24T13:15:29;26.10;63.30
17066;DHT22;23120;52.336;21.182;2022-07-24T13:17:56;26.30;63.40
17066;DHT22;23120;52.336;21.182;2022-07-24T13:20:23;26.40;62.30
17066;DHT22;23120;52.336;21.182;2022-07-24T13:22:50;26.50;61.60
17066;DHT22;23120;52.336;21.182;2022-07-24T13:25:16;26.60;62.80
17066;DHT22;23120;52.336;21.182;2022-07-24T13:27:44;26.70;62.50
17066;DHT22;23120;52.336;21.182;2022-07-24T13:30:12;26.80;62.00
17066;DHT22;23120;52.336;21.182;2022-07-24T13:32:40;26.80;62.30
17066;DHT22;23120;52.336;21.182;2022-07-24T13:35:08;26.90;61.90
17066;DHT22;23120;52.336;21.182;2022-07-24T13:37:35;27.00;61.40
17066;DHT22;23120;52.336;21.182;2022-07-24T13:40:02;27.10;61.80
17066;DHT22;23120;52.336;21.182;2022-07-24T13:42:31;27.20;61.90
17066;DHT22;23120;52.336;21.182;2022-07-24T13:44:58;27.30;61.10
17066;DHT22;23120;52.336;21.182;2022-07-24T13:47:25;27.30;59.60
17066;DHT22;23120;52.336;21.182;2022-07-24T13:49:53;27.40;59.80
17066;DHT22;23120;52.336;21.182;2022-07-24T13:52:19;27.50;60.80
17066;DHT22;23120;52.336;21.182;2022-07-24T13:54:46;27.60;59.70
17066;DHT22;23120;52.336;21.182;2022-07-24T13:57:13;27.60;59.10
17066;DHT22;23120;52.336;21.182;2022-07-24T13:59:40;27.70;59.40
17066;DHT22;23120;52.336;21.182;2022-07-24T14:02:07;27.80;57.80
17066;DHT22;23120;52.336;21.182;2022-07-24T14:04:34;27.80;58.00
17066;DHT22;23120;52.336;21.182;2022-07-24T14:07:02;27.90;59.80
17066;DHT22;23120;52.336;21.182;2022-07-24T14:09:29;28.00;59.00
17066;DHT22;23120;52.336;21.182;2022-07-24T14:11:56;28.20;59.50
17066;DHT22;23120;52.336;21.182;2022-07-24T14:14:23;28.30;57.60
17066;DHT22;23120;52.336;21.182;2022-07-24T14:16:50;28.30;58.80
17066;DHT22;23120;52.336;21.182;2022-07-24T14:19:17;28.40;56.70
17066;DHT22;23120;52.336;21.182;2022-07-24T14:21:43;28.40;57.00
17066;DHT22;23120;52.336;21.182;2022-07-24T14:24:18;28.50;57.30
17066;DHT22;23120;52.336;21.182;2022-07-24T14:26:46;28.50;56.40
17066;DHT22;23120;52.336;21.182;2022-07-24T14:29:13;28.50;56.50
17066;DHT22;23120;52.336;21.182;2022-07-24T14:31:40;28.50;56.90
17066;DHT22;23120;52.336;21.182;2022-07-24T14:34:07;28.60;55.90
17066;DHT22;23120;52.336;21.182;2022-07-24T14:36:34;28.70;56.50
17066;DHT22;23120;52.336;21.182;2022-07-24T14:39:01;28.80;56.20
17066;DHT22;23120;52.336;21.182;2022-07-24T14:41:29;28.90;55.80
17066;DHT22;23120;52.336;21.182;2022-07-24T14:43:56;28.90;56.60
17066;DHT22;23120;52.336;21.182;2022-07-24T14:46:23;29.00;56.30
17066;DHT22;23120;52.336;21.182;2022-07-24T14:48:49;29.00;56.10
17066;DHT22;23120;52.336;21.182;2022-07-24T14:51:16;29.10;55.90
17066;DHT22;23120;52.336;21.182;2022-07-24T14:53:43;29.20;54.90
17066;DHT22;23120;52.336;21.182;2022-07-24T14:56:10;29.20;55.40
17066;DHT22;23120;52.336;21.182;2022-07-24T14:58:39;29.30;56.20
17066;DHT22;23120;52.336;21.182;2022-07-24T15:01:06;29.40;54.70
17066;DHT22;23120;52.336;21.182;2022-07-24T15:03:33;29.40;56.10
17066;DHT22;23120;52.336;21.182;2022-07-24T15:06:00;29.40;56.10
17066;DHT22;23120;52.336;21.182;2022-07-24T15:08:27;29.40;53.80
17066;DHT22;23120;52.336;21.182;2022-07-24T15:10:53;29.40;54.40
17066;DHT22;23120;52.336;21.182;2022-07-24T15:13:20;29.50;55.00
17066;DHT22;23120;52.336;21.182;2022-07-24T15:15:49;29.60;53.90
17066;DHT22;23120;52.336;21.182;2022-07-24T15:18:16;29.70;55.50
17066;DHT22;23120;52.336;21.182;2022-07-24T15:20:43;29.70;55.10
17066;DHT22;23120;52.336;21.182;2022-07-24T15:23:10;29.80;54.50